sensor_id;sensor_type;location;lat;lon;timestamp;temperature;humidity
7512;DHT22;9999;48.780;9.146;2023-11-19T00:00:13;7.40;99.90
7512;DHT22;9999;48.780;9.146;2023-11-19T00:02:41;7.40;99.90
7512;DHT22;9999;48.780;9.146;2023-11-19T00:05:09;7.40;99.90
7512;DHT22;9999;48.780;9.146;2023-11-19T00:07:37;7.50;99.90
7512;DHT22;9999;48.780;9.146;2023-11-19T00:10:08;7.60;99.90
7512;DHT22;9999;48.780;9.146;2023-11-19T00:12:37;7.70;99.90
7512;DHT22;9999;48.780;9.146;2023-11-19T00:15:04;7.80;99.90
7512;DHT22;9999;48.780;9.146;2023-11-19T00:17:34;7.80;99.90
7512;DHT22;9999;48.780;9.146;2023-11-19T00:20:01;7.90;99.90
7512;DHT22;9999;48.780;9.146;2023-11-19T00:22:31;8.00;99.90
7512;DHT22;9999;48.780;9.146;2023-11-19T00:24:58;8.00;99.90
7512;DHT22;9999;48.780;9.146;2023-11-19T00:27:27;8.10;99.90
7512;DHT22;9999;48.780;9.146;2023-11-19T00:29:54;8.10;99.90
7512;DHT22;9999;48.780;9.146;2023-11-19T00:32:20;8.20;99.90
7512;DHT22;9999;48.780;9.146;2023-11-19T00:34:47;8.30;99.90
7512;DHT22;9999;48.780;9.146;2023-11-19T00:37:14;8.30;99.90
7512;DHT22;9999;48.780;9.146;2023-11-19T00:39:41;8.30;99.90
7512;DHT22;9999;48.780;9.146;2023-11-19T00:42:09;8.40;99.90
7512;DHT22;9999;48.780;9.146;2023-11-19T00:44:38;8.40;99.90
7512;DHT22;9999;48.780;9.146;2023-11-19T00:47:05;8.40;99.90
7512;DHT22;9999;48.780;9.146;2023-11-19T00:49:32;8.40;99.90
7512;DHT22;9999;48.780;9.146;2023-11-19T00:51:59;8.40;99.90
7512;DHT22;9999;48.780;9.146;2023-11-19T00:54:27;8.40;99.90
7512;DHT22;9999;48.780;9.146;2023-11-19T00:56:54;8.50;99.90
7512;DHT22;9999;48.780;9.146;2023-11-19T00:59:21;8.50;99.90
7512;DHT22;9999;48.780;9.146;2023-11-19T01:01:49;8.50;99.90
7512;DHT22;9999;48.780;9.146;2023-11-19T01:04:19;8.50;99.90
7512;DHT22;9999;48.780;9.146;2023-11-19T01:06:46;8.60;99.90
7512;DHT22;9999;48.780;9.146;2023-11-19T01:09:12;8.60;99.90
7512;DHT22;9999;48.780;9.146;2023-11-19T01:11:40;8.60;99.90
7512;DHT22;9999;48.780;9.146;2023-11-19T01:14:07;8.70;99.90
7512;DHT22;9999;48.780;9.146;2023-11-19T01:16:34;8.70;99.90
7512;DHT22;9999;48.780;9.146;2023-11-19T01:19:02;8.70;99.90
7512;DHT22;9999;48.780;9.146;2023-11-19T01:21:32;8.70;99.90
7512;DHT22;9999;48.780;9.146;2023-11-19T01:23:59;8.70;99.90
7512;DHT22;9999;48.780;9.146;2023-11-19T01:26:26;8.70;99.90
7512;DHT22;9999;48.780;9.146;2023-11-19T01:28:53;8.70;99.90
7512;DHT22;9999;48.780;9.146;2023-11-19T01:31:20;8.70;99.90
7512;DHT22;9999;48.780;9.146;2023-11-19T01:33:47;8.70;99.90
7512;DHT22;9999;48.780;9.146;2023-11-19T01:36:15;8.80;99.90
7512;DHT22;9999;48.780;9.146;2023-11-19T01:38:42;8.90;99.90
7512;DHT22;9999;48.780;9.146;2023-11-19T01:41:09;8.90;99.90
7512;DHT22;9999;48.780;9.146;2023-11-19T01:43:37;8.90;99.90
7512;DHT22;9999;48.780;9.146;2023-11-19T01:46:05;8.90;99.90
7512;DHT22;9999;48.780;9.146;2023-11-19T01:48:36;9.00;99.90
7512;DHT22;9999;48.780;9.146;2023-11-19T01:51:05;9.00;99.90
7512;DHT22;9999;48.780;9.146;2023-11-19T01:53:35;9.00;99.90
7512;DHT22;9999;48.780;9.146;2023-11-19T01:56:04;9.10;99.90
7512;DHT22;9999;48.780;9.146;2023-11-19T01:58:32;9.10;99.90
7512;DHT22;9999;48.780;9.146;2023-11-19T02:00:59;9.10;99.90
7512;DHT22;9999;48.780;9.146;2023-11-19T02:03:31;9.20;99.90
7512;DHT22;9999;48.780;9.146;2023-11-19T02:05:58;9.20;99.90
7512;DHT22;9999;48.780;9.146;2023-11-19T02:08:25;9.20;99.90
7512;DHT22;9999;48.780;9.146;2023-11-19T02:10:53;9.10;99.90
7512;DHT22;9999;48.780;9.146;2023-11-19T02:13:22;9.10;99.90
7512;DHT22;9999;48.780;9.146;2023-11-19T02:15:49;9.20;99.90
7512;DHT22;9999;48.780;9.146;2023-11-19T02:18:20;9.10;99.90
7512;DHT22;9999;48.780;9.146;2023-11-19T02:20:48;9.20;99.90
7512;DHT22;9999;48.780;9.146;2023-11-19T02:23:15;9.20;99.90
7512;DHT22;9999;48.780;9.146;2023-11-19T02:25:44;9.20;99.90
7512;DHT22;9999;48.780;9.146;2023-11-19T02:28:17;9.20;99.90
7512;DHT22;9999;48.780;9.146;2023-11-19T02:30:44;9.30;99.90
7512;DHT22;9999;48.780;9.146;2023-11-19T02:33:10;9.20;99.90
7512;DHT22;9999;48.780;9.146;2023-11-19T02:35:38;9.30;99.90
7512;DHT22;9999;48.780;9.146;2023-11-19T02:38:06;9.30;99.90
7512;DHT22;9999;48.780;9.146;2023-11-19T02:40:33;9.30;99.90
7512;DHT22;9999;48.780;9.146;2023-11-19T02:43:00;9.30;99.90
7512;DHT22;9999;48.780;9.146;2023-11-19T02:45:29;9.30;99.90
7512;DHT22;9999;48.780;9.146;2023-11-19T02:47:56;9.30;99.90
7512;DHT22;9999;48.780;9.146;2023-11-19T02:50:24;9.30;99.90
7512;DHT22;9999;48.780;9.146;2023-11-19T02:52:53;9.30;99.90
7512;DHT22;9999;48.780;9.146;2023-11-19T02:55:24;9.30;99.90
7512;DHT22;9999;48.780;9.146;2023-11-19T02:57:53;9.30;99.90
7512;DHT22;9999;48.780;9.146;2023-11-19T03:00:22;9.40;99.90
7512;DHT22;9999;48.780;9.146;2023-11-19T03:02:52;9.40;99.90
7512;DHT22;9999;48.780;9.146;2023-11-19T03:05:26;9.40;99.90
7512;DHT22;9999;48.780;9.146;2023-11-19T03:07:56;9.50;99.90
7512;DHT22;9999;48.780;9.146;2023-11-19T03:10:23;9.50;99.90
7512;DHT22;9999;48.780;9.146;2023-11-19T03:12:50;9.50;99.90
7512;DHT22;9999;48.780;9.146;2023-11-19T03:15:17;9.50;99.90
7512;DHT22;9999;48.780;9.146;2023-11-19T03:17:44;9.50;99.90
7512;DHT22;9999;48.780;9.146;2023-11-19T03:20:12;9.50;99.90
7512;DHT22;9999;48.780;9.146;2023-11-19T03:22:42;9.50;99.90
7512;DHT22;9999;48.780;9.146;2023-11-19T03:25:10;9.50;99.90
7512;DHT22;9999;48.780;9.146;2023-11-19T03:27:37;9.50;99.90
7512;DHT22;9999;48.780;9.146;2023-11-19T03:30:06;9.60;99.90
7512;DHT22;9999;48.780;9.146;2023-11-19T03:32:33;9.60;99.90
7512;DHT22;9999;48.780;9.146;2023-11-19T03:35:01;9.60;99.90
7512;DHT22;9999;48.780;9.146;2023-11-19T03:37:31;9.60;99.90
7512;DHT22;9999;48.780;9.146;2023-11-19T03:39:58;9.60;99.90
7512;DHT22;9999;48.780;9.146;2023-11-19T03:42:27;9.60;99.90
7512;DHT22;9999;48.780;9.146;2023-11-19T03:44:56;9.60;99.90
7512;DHT22;9999;48.780;9.146;2023-11-19T03:47:23;9.60;99.90
7512;DHT22;9999;48.780;9.146;2023-11-19T03:49:50;9.60;99.90
7512;DHT22;9999;48.780;9.146;2023-11-19T03:52:18;9.60;99.90
7512;DHT22;9999;48.780;9.146;2023-11-19T03:54:46;9.60;99.90
7512;DHT22;9999;48.780;9.146;2023-11-19T03:57:13;9.70;99.90
7512;DHT22;9999;48.780;9.146;2023-11-19T03:59:41;9.70;99.90
7512;DHT22;9999;48.780;9.146;2023-11-19T04:02:08;9.60;99.90
7512;DHT22;9999;48.780;9.146;2023-11-19T04:04:36;9.70;99.90
7512;DHT22;9999;48.780;9.146;2023-11-19T04:07:04;9.70;99.90
7512;DHT22;9999;48.780;9.146;2023-11-19T04:09:31;9.70;99.90
7512;DHT22;9999;48.780;9.146;2023-11-19T04:11:59;9.60;99.90
7512;DHT22;9999;48.780;9.146;2023-11-19T04:14:27;9.60;99.90
7512;DHT22;9999;48.780;9.146;2023-11-19T04:16:53;9.70;99.90
7512;DHT22;9999;48.780;9.146;2023-11-19T04:19:20;9.70;99.90
7512;DHT22;9999;48.780;9.146;2023-11-19T04:21:47;9.70;99.90
7512;DHT22;9999;48.780;9.146;2023-11-19T04:24:14;9.70;99.90
7512;DHT22;9999;48.780;9.146;2023-11-19T04:26:41;9.80;99.90
7512;DHT22;9999;48.780;9.146;2023-11-19T04:29:13;9.70;99.90
7512;DHT22;9999;48.780;9.146;2023-11-19T04:31:40;9.80;99.90
7512;DHT22;9999;48.780;9.146;2023-11-19T04:34:07;9.80;99.90
7512;DHT22;9999;48.780;9.146;2023-11-19T04:36:34;9.80;99.90
7512;DHT22;9999;48.780;9.146;2023-11-19T04:39:03;9.80;99.90
7512;DHT22;9999;48.780;9.146;2023-11-19T04:41:34;9.80;99.90
7512;DHT22;9999;48.780;9.146;2023-11-19T04:44:01;9.80;99.90
7512;DHT22;9999;48.780;9.146;2023-11-19T04:46:29;9.80;99.90
7512;DHT22;9999;48.780;9.146;2023-11-19T04:48:56;9.80;99.90
7512;DHT22;9999;48.780;9.146;2023-11-19T04:51:23;9.80;99.90
7512;DHT22;9999;48.780;9.146;2023-11-19T04:53:49;9.90;99.90
7512;DHT22;9999;48.780;9.146;2023-11-19T04:56:18;9.90;99.90
7512;DHT22;9999;48.780;9.146;2023-11-19T04:58:45;9.90;99.90
7512;DHT22;9999;48.780;9.146;2023-11-19T05:01:13;9.90;99.90
7512;DHT22;9999;48.780;9.146;2023-11-19T05:03:43;9.90;99.90
7512;DHT22;9999;48.780;9.146;2023-11-19T05:06:11;10.00;99.90
7512;DHT22;9999;48.780;9.146;2023-11-19T05:08:38;10.00;99.90
7512;DHT22;9999;48.780;9.146;2023-11-19T05:11:05;10.00;99.90
7512;DHT22;9999;48.780;9.146;2023-11-19T05:13:32;10.00;99.90
7512;DHT22;9999;48.780;9.146;2023-11-19T05:15:59;10.00;99.90
7512;DHT22;9999;48.780;9.146;2023-11-19T05:18:26;10.00;99.90
7512;DHT22;9999;48.780;9.146;2023-11-19T05:20:54;10.00;99.90
7512;DHT22;9999;48.780;9.146;2023-11-19T05:23:20;10.00;99.90
7512;DHT22;9999;48.780;9.146;2023-11-19T05:25:47;10.10;99.90
7512;DHT22;9999;48.780;9.146;2023-11-19T05:28:14;10.10;99.90
7512;DHT22;9999;48.780;9.146;2023-11-19T05:30:41;10.10;99.90
7512;DHT22;9999;48.780;9.146;2023-11-19T05:33:08;10.10;99.90
7512;DHT22;9999;48.780;9.146;2023-11-19T05:35:34;10.10;99.90
7512;DHT22;9999;48.780;9.146;2023-11-19T05:38:03;10.20;99.90
7512;DHT22;9999;48.780;9.146;2023-11-19T05:40:31;10.20;99.90
7512;DHT22;9999;48.780;9.146;2023-11-19T05:42:58;10.20;99.90
7512;DHT22;9999;48.780;9.146;2023-11-19T05:45:25;10.20;99.90
7512;DHT22;9999;48.780;9.146;2023-11-19T05:47:52;10.20;99.90
7512;DHT22;9999;48.780;9.146;2023-11-19T05:50:19;10.20;99.90
7512;DHT22;9999;48.780;9.146;2023-11-19T05:52:46;10.20;99.90
7512;DHT22;9999;48.780;9.146;2023-11-19T05:55:14;10.20;99.90
7512;DHT22;9999;48.780;9.146;2023-11-19T05:57:41;10.20;99.90
7512;DHT22;9999;48.780;9.146;2023-11-19T06:00:09;10.30;99.90
7512;DHT22;9999;48.780;9.146;2023-11-19T06:02:38;10.30;99.90
7512;DHT22;9999;48.780;9.146;2023-11-19T06:05:06;10.30;99.90
7512;DHT22;9999;48.780;9.146;2023-11-19T06:07:33;10.30;99.90
7512;DHT22;9999;48.780;9.146;2023-11-19T06:10:00;10.30;99.90
7512;DHT22;9999;48.780;9.146;2023-11-19T06:12:29;10.30;99.90
7512;DHT22;9999;48.780;9.146;2023-11-19T06:14:59;10.30;99.90
7512;DHT22;9999;48.780;9.146;2023-11-19T06:17:26;10.30;99.90
7512;DHT22;9999;48.780;9.146;2023-11-19T06:19:53;10.30;99.90
7512;DHT22;9999;48.780;9.146;2023-11-19T06:22:19;10.30;99.90
7512;DHT22;9999;48.780;9.146;2023-11-19T06:24:46;10.30;99.90
7512;DHT22;9999;48.780;9.146;2023-11-19T06:27:13;10.30;99.90
7512;DHT22;9999;48.780;9.146;2023-11-19T06:29:41;10.30;99.90
7512;DHT22;9999;48.780;9.146;2023-11-19T06:32:08;10.30;99.90
7512;DHT22;9999;48.780;9.146;2023-11-19T06:34:35;10.30;99.90
7512;DHT22;9999;48.780;9.146;2023-11-19T06:37:02;10.30;99.90
7512;DHT22;9999;48.780;9.146;2023-11-19T06:39:29;10.30;99.90
7512;DHT22;9999;48.780;9.146;2023-11-19T06:41:56;10.30;99.90
7512;DHT22;9999;48.780;9.146;2023-11-19T06:44:23;10.30;99.90
7512;DHT22;9999;48.780;9.146;2023-11-19T06:46:51;10.30;99.90
7512;DHT22;9999;48.780;9.146;2023-11-19T06:49:19;10.40;99.90
7512;DHT22;9999;48.780;9.146;2023-11-19T06:51:46;10.30;99.90
7512;DHT22;9999;48.780;9.146;2023-11-19T06:54:13;10.40;99.90
7512;DHT22;9999;48.780;9.146;2023-11-19T06:56:39;10.40;99.90
7512;DHT22;9999;48.780;9.146;2023-11-19T06:59:07;10.30;99.90
7512;DHT22;9999;48.780;9.146;2023-11-19T07:01:34;10.40;99.90
7512;DHT22;9999;48.780;9.146;2023-11-19T07:04:03;10.40;99.90
7512;DHT22;9999;48.780;9.146;2023-11-19T07:06:34;10.40;99.90
7512;DHT22;9999;48.780;9.146;2023-11-19T07:09:01;10.30;99.90
7512;DHT22;9999;48.780;9.146;2023-11-19T07:11:35;10.30;99.90
7512;DHT22;9999;48.780;9.146;2023-11-19T07:14:02;10.40;99.90
7512;DHT22;9999;48.780;9.146;2023-11-19T07:16:29;10.40;99.90
7512;DHT22;9999;48.780;9.146;2023-11-19T07:18:56;10.30;99.90
7512;DHT22;9999;48.780;9.146;2023-11-19T07:21:25;10.30;99.90
7512;DHT22;9999;48.780;9.146;2023-11-19T07:23:53;10.30;99.90
7512;DHT22;9999;48.780;9.146;2023-11-19T07:26:20;10.40;99.90
7512;DHT22;9999;48.780;9.146;2023-11-19T07:28:47;10.40;99.90
7512;DHT22;9999;48.780;9.146;2023-11-19T07:31:14;10.40;99.90
7512;DHT22;9999;48.780;9.146;2023-11-19T07:33:41;10.40;99.90
7512;DHT22;9999;48.780;9.146;2023-11-19T07:36:08;10.40;99.90
7512;DHT22;9999;48.780;9.146;2023-11-19T07:38:37;10.40;99.90
7512;DHT22;9999;48.780;9.146;2023-11-19T07:41:04;10.40;99.90
7512;DHT22;9999;48.780;9.146;2023-11-19T07:43:32;10.40;99.90
7512;DHT22;9999;48.780;9.146;2023-11-19T07:45:59;10.50;99.90
7512;DHT22;9999;48.780;9.146;2023-11-19T07:48:26;10.50;99.90
7512;DHT22;9999;48.780;9.146;2023-11-19T07:50:53;10.50;99.90
7512;DHT22;9999;48.780;9.146;2023-11-19T07:53:19;10.50;99.90
7512;DHT22;9999;48.780;9.146;2023-11-19T07:55:48;10.50;99.90
7512;DHT22;9999;48.780;9.146;2023-11-19T07:58:14;10.60;99.90
7512;DHT22;9999;48.780;9.146;2023-11-19T08:00:41;10.50;99.90
7512;DHT22;9999;48.780;9.146;2023-11-19T08:03:08;10.60;99.90
7512;DHT22;9999;48.780;9.146;2023-11-19T08:05:35;10.60;99.90
7512;DHT22;9999;48.780;9.146;2023-11-19T08:08:02;10.60;99.90
7512;DHT22;9999;48.780;9.146;2023-11-19T08:10:29;10.60;99.90
7512;DHT22;9999;48.780;9.146;2023-11-19T08:12:57;10.60;99.90
7512;DHT22;9999;48.780;9.146;2023-11-19T08:15:24;10.60;99.90
7512;DHT22;9999;48.780;9.146;2023-11-19T08:17:51;10.70;99.90
7512;DHT22;9999;48.780;9.146;2023-11-19T08:20:18;10.70;99.90
7512;DHT22;9999;48.780;9.146;2023-11-19T08:22:45;10.80;99.90
7512;DHT22;9999;48.780;9.146;2023-11-19T08:25:12;10.80;99.90
7512;DHT22;9999;48.780;9.146;2023-11-19T08:27:38;10.80;99.90
7512;DHT22;9999;48.780;9.146;2023-11-19T08:30:07;10.80;99.90
7512;DHT22;9999;48.780;9.146;2023-11-19T08:32:34;10.90;99.90
7512;DHT22;9999;48.780;9.146;2023-11-19T08:35:01;11.00;99.90
7512;DHT22;9999;48.780;9.146;2023-11-19T08:37:28;11.10;99.90
7512;DHT22;9999;48.780;9.146;2023-11-19T08:39:55;11.20;99.90
7512;DHT22;9999;48.780;9.146;2023-11-19T08:42:21;11.30;99.90
7512;DHT22;9999;48.780;9.146;2023-11-19T08:44:49;11.50;99.90
7512;DHT22;9999;48.780;9.146;2023-11-19T08:47:21;11.50;99.90
7512;DHT22;9999;48.780;9.146;2023-11-19T08:49:48;11.60;99.90
7512;DHT22;9999;48.780;9.146;2023-11-19T08:52:17;11.60;99.90
7512;DHT22;9999;48.780;9.146;2023-11-19T08:54:44;11.50;99.90
7512;DHT22;9999;48.780;9.146;2023-11-19T08:57:10;11.40;99.90
7512;DHT22;9999;48.780;9.146;2023-11-19T08:59:37;11.40;99.90
7512;DHT22;9999;48.780;9.146;2023-11-19T09:02:04;11.40;99.90
7512;DHT22;9999;48.780;9.146;2023-11-19T09:04:33;11.50;99.90
7512;DHT22;9999;48.780;9.146;2023-11-19T09:07:01;11.60;99.90
7512;DHT22;9999;48.780;9.146;2023-11-19T09:09:28;11.60;99.90
7512;DHT22;9999;48.780;9.146;2023-11-19T09:11:55;11.80;99.90
7512;DHT22;9999;48.780;9.146;2023-11-19T09:14:22;11.80;99.90
7512;DHT22;9999;48.780;9.146;2023-11-19T09:16:52;11.90;99.90
7512;DHT22;9999;48.780;9.146;2023-11-19T09:19:19;11.90;99.90
7512;DHT22;9999;48.780;9.146;2023-11-19T09:21:47;12.00;99.90
7512;DHT22;9999;48.780;9.146;2023-11-19T09:24:14;12.00;99.90
7512;DHT22;9999;48.780;9.146;2023-11-19T09:26:41;11.90;99.90
7512;DHT22;9999;48.780;9.146;2023-11-19T09:29:08;11.90;99.90
7512;DHT22;9999;48.780;9.146;2023-11-19T09:31:35;12.00;99.90
7512;DHT22;9999;48.780;9.146;2023-11-19T09:34:04;11.90;99.90
7512;DHT22;9999;48.780;9.146;2023-11-19T09:36:31;11.90;99.90
7512;DHT22;9999;48.780;9.146;2023-11-19T09:38:59;12.20;99.90
7512;DHT22;9999;48.780;9.146;2023-11-19T09:41:27;12.30;99.90
7512;DHT22;9999;48.780;9.146;2023-11-19T09:43:54;12.30;99.90
7512;DHT22;9999;48.780;9.146;2023-11-19T09:46:22;12.40;99.90
7512;DHT22;9999;48.780;9.146;2023-11-19T09:48:51;12.40;99.90
7512;DHT22;9999;48.780;9.146;2023-11-19T09:51:20;12.50;99.90
7512;DHT22;9999;48.780;9.146;2023-11-19T09:53:48;12.50;99.90
7512;DHT22;9999;48.780;9.146;2023-11-19T09:56:16;12.60;99.90
7512;DHT22;9999;48.780;9.146;2023-11-19T09:58:43;12.70;99.90
7512;DHT22;9999;48.780;9.146;2023-11-19T10:01:09;12.70;99.90
7512;DHT22;9999;48.780;9.146;2023-11-19T10:03:39;12.70;99.90
7512;DHT22;9999;48.780;9.146;2023-11-19T10:06:07;12.90;99.90
7512;DHT22;9999;48.780;9.146;2023-11-19T10:08:34;13.00;99.90
7512;DHT22;9999;48.780;9.146;2023-11-19T10:11:05;13.10;99.90
7512;DHT22;9999;48.780;9.146;2023-11-19T10:13:35;13.10;99.90
7512;DHT22;9999;48.780;9.146;2023-11-19T10:16:04;13.00;99.90
7512;DHT22;9999;48.780;9.146;2023-11-19T10:18:33;12.90;99.90
7512;DHT22;9999;48.780;9.146;2023-11-19T10:21:04;13.00;99.90
7512;DHT22;9999;48.780;9.146;2023-11-19T10:23:31;13.10;99.90
7512;DHT22;9999;48.780;9.146;2023-11-19T10:26:03;13.20;99.90
7512;DHT22;9999;48.780;9.146;2023-11-19T10:28:39;13.30;99.90
7512;DHT22;9999;48.780;9.146;2023-11-19T10:31:08;13.30;99.90
7512;DHT22;9999;48.780;9.146;2023-11-19T10:33:35;13.40;99.90
7512;DHT22;9999;48.780;9.146;2023-11-19T10:36:02;13.50;99.90
7512;DHT22;9999;48.780;9.146;2023-11-19T10:38:29;13.50;99.90
7512;DHT22;9999;48.780;9.146;2023-11-19T10:40:56;13.50;99.90
7512;DHT22;9999;48.780;9.146;2023-11-19T10:43:24;13.50;99.90
7512;DHT22;9999;48.780;9.146;2023-11-19T10:45:52;13.50;99.90
7512;DHT22;9999;48.780;9.146;2023-11-19T10:48:19;13.50;99.90
7512;DHT22;9999;48.780;9.146;2023-11-19T10:50:49;13.50;99.90
7512;DHT22;9999;48.780;9.146;2023-11-19T10:53:20;13.50;99.90
7512;DHT22;9999;48.780;9.146;2023-11-19T10:55:48;13.50;99.90
7512;DHT22;9999;48.780;9.146;2023-11-19T10:58:16;13.60;99.90
7512;DHT22;9999;48.780;9.146;2023-11-19T11:00:44;13.60;99.90
7512;DHT22;9999;48.780;9.146;2023-11-19T11:03:17;13.70;99.90
7512;DHT22;9999;48.780;9.146;2023-11-19T11:05:46;13.60;99.90
7512;DHT22;9999;48.780;9.146;2023-11-19T11:08:14;13.50;99.90
7512;DHT22;9999;48.780;9.146;2023-11-19T11:10:44;13.60;99.90
7512;DHT22;9999;48.780;9.146;2023-11-19T11:13:11;13.60;99.90
7512;DHT22;9999;48.780;9.146;2023-11-19T11:15:40;13.50;99.90
7512;DHT22;9999;48.780;9.146;2023-11-19T11:18:08;13.50;99.90
7512;DHT22;9999;48.780;9.146;2023-11-19T11:20:37;13.50;99.90
7512;DHT22;9999;48.780;9.146;2023-11-19T11:23:36;13.50;99.90
7512;DHT22;9999;48.780;9.146;2023-11-19T11:26:21;13.40;99.90
7512;DHT22;9999;48.780;9.146;2023-11-19T11:28:58;13.40;99.90
7512;DHT22;9999;48.780;9.146;2023-11-19T11:31:36;13.40;99.90
7512;DHT22;9999;48.780;9.146;2023-11-19T11:34:25;13.20;99.90
7512;DHT22;9999;48.780;9.146;2023-11-19T11:37:09;13.20;99.90
7512;DHT22;9999;48.780;9.146;2023-11-19T11:39:40;13.20;99.90
7512;DHT22;9999;48.780;9.146;2023-11-19T11:42:33;13.20;99.90
7512;DHT22;9999;48.780;9.146;2023-11-19T11:45:01;13.10;99.90
7512;DHT22;9999;48.780;9.146;2023-11-19T11:50:33;13.10;99.90
7512;DHT22;9999;48.780;9.146;2023-11-19T11:53:16;13.20;99.90
7512;DHT22;9999;48.780;9.146;2023-11-19T11:55:56;13.40;99.90
7512;DHT22;9999;48.780;9.146;2023-11-19T11:58:32;13.50;99.90
7512;DHT22;9999;48.780;9.146;2023-11-19T12:01:02;13.60;99.90
7512;DHT22;9999;48.780;9.146;2023-11-19T12:03:33;13.80;99.90
7512;DHT22;9999;48.780;9.146;2023-11-19T12:06:00;13.80;99.90
7512;DHT22;9999;48.780;9.146;2023-11-19T12:08:30;13.90;99.90
7512;DHT22;9999;48.780;9.146;2023-11-19T12:10:58;13.80;99.90
7512;DHT22;9999;48.780;9.146;2023-11-19T12:13:42;13.80;99.90
7512;DHT22;9999;48.780;9.146;2023-11-19T12:16:12;14.00;99.90
7512;DHT22;9999;48.780;9.146;2023-11-19T12:18:40;14.10;99.90
7512;DHT22;9999;48.780;9.146;2023-11-19T12:21:10;14.20;99.90
7512;DHT22;9999;48.780;9.146;2023-11-19T12:23:45;14.20;99.90
7512;DHT22;9999;48.780;9.146;2023-11-19T12:26:38;14.10;99.90
7512;DHT22;9999;48.780;9.146;2023-11-19T12:29:06;14.00;99.90
7512;DHT22;9999;48.780;9.146;2023-11-19T12:31:33;14.00;99.90
7512;DHT22;9999;48.780;9.146;2023-11-19T12:34:09;14.00;99.90
7512;DHT22;9999;48.780;9.146;2023-11-19T12:36:40;14.10;99.90
7512;DHT22;9999;48.780;9.146;2023-11-19T12:39:09;14.20;99.90
7512;DHT22;9999;48.780;9.146;2023-11-19T12:41:53;14.20;99.90
7512;DHT22;9999;48.780;9.146;2023-11-19T12:44:21;14.20;99.90
7512;DHT22;9999;48.780;9.146;2023-11-19T12:47:02;14.30;99.90
7512;DHT22;9999;48.780;9.146;2023-11-19T12:49:29;14.00;99.90
7512;DHT22;9999;48.780;9.146;2023-11-19T12:51:56;13.70;99.90
7512;DHT22;9999;48.780;9.146;2023-11-19T12:54:33;13.60;99.90
7512;DHT22;9999;48.780;9.146;2023-11-19T12:57:00;13.70;99.90
7512;DHT22;9999;48.780;9.146;2023-11-19T12:59:27;13.80;99.90
7512;DHT22;9999;48.780;9.146;2023-11-19T13:01:55;14.00;99.90
7512;DHT22;9999;48.780;9.146;2023-11-19T13:04:22;14.10;99.90
7512;DHT22;9999;48.780;9.146;2023-11-19T13:06:50;14.00;99.90
7512;DHT22;9999;48.780;9.146;2023-11-19T13:09:23;14.10;99.90
7512;DHT22;9999;48.780;9.146;2023-11-19T13:11:52;14.20;99.90
7512;DHT22;9999;48.780;9.146;2023-11-19T13:14:20;14.00;99.90
7512;DHT22;9999;48.780;9.146;2023-11-19T13:16:47;13.90;99.90
7512;DHT22;9999;48.780;9.146;2023-11-19T13:19:14;14.10;99.90
7512;DHT22;9999;48.780;9.146;2023-11-19T13:21:44;14.20;99.90
7512;DHT22;9999;48.780;9.146;2023-11-19T13:24:12;14.20;99.90
7512;DHT22;9999;48.780;9.146;2023-11-19T13:26:39;14.00;99.90
7512;DHT22;9999;48.780;9.146;2023-11-19T13:29:07;13.80;99.90
7512;DHT22;9999;48.780;9.146;2023-11-19T13:31:36;13.60;99.90
7512;DHT22;9999;48.780;9.146;2023-11-19T13:34:03;13.70;99.90
7512;DHT22;9999;48.780;9.146;2023-11-19T13:36:32;13.70;99.90
7512;DHT22;9999;48.780;9.146;2023-11-19T13:38:59;13.70;99.90
7512;DHT22;9999;48.780;9.146;2023-11-19T13:41:26;13.70;99.90
7512;DHT22;9999;48.780;9.146;2023-11-19T13:43:53;13.70;99.90
7512;DHT22;9999;48.780;9.146;2023-11-19T13:46:22;13.60;99.90
7512;DHT22;9999;48.780;9.146;2023-11-19T13:48:48;13.40;99.90
7512;DHT22;9999;48.780;9.146;2023-11-19T13:51:15;13.50;99.90
7512;DHT22;9999;48.780;9.146;2023-11-19T13:53:42;13.50;99.90
7512;DHT22;9999;48.780;9.146;2023-11-19T13:56:09;13.30;99.90
7512;DHT22;9999;48.780;9.146;2023-11-19T13:58:36;13.30;99.90
7512;DHT22;9999;48.780;9.146;2023-11-19T14:01:04;13.30;99.90
7512;DHT22;9999;48.780;9.146;2023-11-19T14:03:31;13.30;99.90
7512;DHT22;9999;48.780;9.146;2023-11-19T14:05:59;13.20;99.90
7512;DHT22;9999;48.780;9.146;2023-11-19T14:08:26;13.10;99.90
7512;DHT22;9999;48.780;9.146;2023-11-19T14:10:53;13.10;99.90
7512;DHT22;9999;48.780;9.146;2023-11-19T14:13:21;12.90;99.90
7512;DHT22;9999;48.780;9.146;2023-11-19T14:15:49;12.90;99.90
7512;DHT22;9999;48.780;9.146;2023-11-19T14:18:16;12.80;99.90
7512;DHT22;9999;48.780;9.146;2023-11-19T14:20:44;12.80;99.90
7512;DHT22;9999;48.780;9.146;2023-11-19T14:23:11;12.80;99.90
7512;DHT22;9999;48.780;9.146;2023-11-19T14:25:38;12.80;99.90
7512;DHT22;9999;48.780;9.146;2023-11-19T14:28:04;12.80;99.90
7512;DHT22;9999;48.780;9.146;2023-11-19T14:30:31;12.90;99.90
7512;DHT22;9999;48.780;9.146;2023-11-19T14:32:59;12.90;99.90
7512;DHT22;9999;48.780;9.146;2023-11-19T14:35:26;12.70;99.90
7512;DHT22;9999;48.780;9.146;2023-11-19T14:37:54;12.60;99.90
7512;DHT22;9999;48.780;9.146;2023-11-19T14:40:21;12.70;99.90
7512;DHT22;9999;48.780;9.146;2023-11-19T14:42:48;12.60;99.90
7512;DHT22;9999;48.780;9.146;2023-11-19T14:45:14;12.50;99.90
7512;DHT22;9999;48.780;9.146;2023-11-19T14:47:43;12.50;99.90
7512;DHT22;9999;48.780;9.146;2023-11-19T14:50:10;12.40;99.90
7512;DHT22;9999;48.780;9.146;2023-11-19T14:52:37;12.40;99.90
7512;DHT22;9999;48.780;9.146;2023-11-19T14:55:07;12.40;99.90
7512;DHT22;9999;48.780;9.146;2023-11-19T14:57:35;12.40;99.90
7512;DHT22;9999;48.780;9.146;2023-11-19T15:00:05;12.30;99.90
7512;DHT22;9999;48.780;9.146;2023-11-19T15:02:39;12.30;99.90
7512;DHT22;9999;48.780;9.146;2023-11-19T15:05:07;12.30;99.90
7512;DHT22;9999;48.780;9.146;2023-11-19T15:07:35;12.20;99.90
7512;DHT22;9999;48.780;9.146;2023-11-19T15:10:02;12.20;99.90
7512;DHT22;9999;48.780;9.146;2023-11-19T15:12:36;12.20;99.90
7512;DHT22;9999;48.780;9.146;2023-11-19T15:15:07;12.10;99.90
7512;DHT22;9999;48.780;9.146;2023-11-19T15:17:34;12.20;99.90
7512;DHT22;9999;48.780;9.146;2023-11-19T15:20:02;12.20;99.90
7512;DHT22;9999;48.780;9.146;2023-11-19T15:22:29;12.20;99.90
7512;DHT22;9999;48.780;9.146;2023-11-19T15:24:56;12.10;99.90
7512;DHT22;9999;48.780;9.146;2023-11-19T15:27:23;12.00;99.90
7512;DHT22;9999;48.780;9.146;2023-11-19T15:29:51;12.00;99.90
7512;DHT22;9999;48.780;9.146;2023-11-19T15:32:19;12.00;99.90
7512;DHT22;9999;48.780;9.146;2023-11-19T15:34:46;12.00;99.90
7512;DHT22;9999;48.780;9.146;2023-11-19T15:37:12;12.00;99.90
7512;DHT22;9999;48.780;9.146;2023-11-19T15:39:40;12.10;99.90
7512;DHT22;9999;48.780;9.146;2023-11-19T15:42:07;12.00;99.90
7512;DHT22;9999;48.780;9.146;2023-11-19T15:44:35;11.90;99.90
7512;DHT22;9999;48.780;9.146;2023-11-19T15:47:03;11.90;99.90
7512;DHT22;9999;48.780;9.146;2023-11-19T15:49:30;11.80;99.90
7512;DHT22;9999;48.780;9.146;2023-11-19T15:51:57;12.00;99.90
7512;DHT22;9999;48.780;9.146;2023-11-19T15:54:25;12.00;99.90
7512;DHT22;9999;48.780;9.146;2023-11-19T15:56:52;11.80;99.90
7512;DHT22;9999;48.780;9.146;2023-11-19T15:59:18;11.90;99.90
7512;DHT22;9999;48.780;9.146;2023-11-19T16:01:46;11.80;99.90
7512;DHT22;9999;48.780;9.146;2023-11-19T16:04:14;11.60;99.90
7512;DHT22;9999;48.780;9.146;2023-11-19T16:06:41;11.60;99.90
7512;DHT22;9999;48.780;9.146;2023-11-19T16:09:08;11.60;99.90
7512;DHT22;9999;48.780;9.146;2023-11-19T16:11:40;11.60;99.90
7512;DHT22;9999;48.780;9.146;2023-11-19T16:14:09;11.60;99.90
7512;DHT22;9999;48.780;9.146;2023-11-19T16:16:36;11.50;99.90